sensor_id;sensor_type;location;lat;lon;timestamp;pressure;altitude;pressure_sealevel;temperature;humidity
55664;BME280;41540;57.880;12.164;2022-10-31T00:06:39;100118.34;;;12.12;100.00
55664;BME280;41540;57.880;12.164;2022-10-31T00:16:39;100044.56;;;11.63;100.00
55664;BME280;41540;57.880;12.164;2022-10-31T00:26:41;100119.22;;;12.11;100.00
55664;BME280;41540;57.880;12.164;2022-10-31T00:36:41;100131.38;;;12.19;100.00
55664;BME280;41540;57.880;12.164;2022-10-31T00:46:42;100063.66;;;11.76;100.00
55664;BME280;41540;57.880;12.164;2022-10-31T00:56:42;100078.41;;;11.83;100.00
55664;BME280;41540;57.880;12.164;2022-10-31T01:06:42;100139.16;;;12.22;100.00
55664;BME280;41540;57.880;12.164;2022-10-31T01:16:43;100120.13;;;12.19;100.00
55664;BME280;41540;57.880;12.164;2022-10-31T01:26:43;100112.28;;;12.05;100.00
55664;BME280;41540;57.880;12.164;2022-10-31T01:36:44;100080.22;;;11.98;100.00
55664;BME280;41540;57.880;12.164;2022-10-31T01:56:53;100139.97;;;12.03;100.00
55664;BME280;41540;57.880;12.164;2022-10-31T02:07:08;100148.56;;;11.91;100.00
55664;BME280;41540;57.880;12.164;2022-10-31T02:17:10;100171.91;;;11.89;100.00
55664;BME280;41540;57.880;12.164;2022-10-31T02:37:15;100210.84;;;11.89;100.00
55664;BME280;41540;57.880;12.164;2022-10-31T02:47:25;100159.59;;;11.65;100.00
55664;BME280;41540;57.880;12.164;2022-10-31T02:57:36;100210.88;;;11.96;100.00
55664;BME280;41540;57.880;12.164;2022-10-31T03:07:54;100116.25;;;11.49;100.00
55664;BME280;41540;57.880;12.164;2022-10-31T03:18:13;100180.59;;;11.93;100.00
55664;BME280;41540;57.880;12.164;2022-10-31T03:28:18;100146.66;;;11.68;100.00
55664;BME280;41540;57.880;12.164;2022-10-31T03:38:23;100130.91;;;11.42;100.00
55664;BME280;41540;57.880;12.164;2022-10-31T03:48:24;100248.78;;;11.77;100.00
55664;BME280;41540;57.880;12.164;2022-10-31T03:58:32;100206.38;;;11.73;100.00
55664;BME280;41540;57.880;12.164;2022-10-31T04:08:45;100230.66;;;11.80;100.00
55664;BME280;41540;57.880;12.164;2022-10-31T04:18:48;100142.09;;;11.35;100.00
55664;BME280;41540;57.880;12.164;2022-10-31T04:28:48;100204.72;;;11.84;100.00
55664;BME280;41540;57.880;12.164;2022-10-31T04:38:49;100169.81;;;11.42;100.00
55664;BME280;41540;57.880;12.164;2022-10-31T04:48:49;100227.03;;;11.59;100.00
55664;BME280;41540;57.880;12.164;2022-10-31T04:58:50;100235.59;;;11.52;100.00
55664;BME280;41540;57.880;12.164;2022-10-31T05:08:50;100253.88;;;11.66;100.00
55664;BME280;41540;57.880;12.164;2022-10-31T05:18:50;100239.78;;;11.38;100.00
55664;BME280;41540;57.880;12.164;2022-10-31T05:28:51;100253.78;;;11.57;100.00
55664;BME280;41540;57.880;12.164;2022-10-31T05:38:51;100161.03;;;11.23;100.00
55664;BME280;41540;57.880;12.164;2022-10-31T05:48:51;100220.97;;;11.59;100.00
55664;BME280;41540;57.880;12.164;2022-10-31T05:58:52;100094.97;;;10.80;100.00
55664;BME280;41540;57.880;12.164;2022-10-31T06:08:52;100240.78;;;11.52;100.00
55664;BME280;41540;57.880;12.164;2022-10-31T06:18:52;100284.19;;;11.71;100.00
55664;BME280;41540;57.880;12.164;2022-10-31T06:28:52;100337.09;;;11.84;100.00
55664;BME280;41540;57.880;12.164;2022-10-31T06:38:53;100270.28;;;11.63;100.00
55664;BME280;41540;57.880;12.164;2022-10-31T06:48:53;100264.22;;;11.64;100.00
55664;BME280;41540;57.880;12.164;2022-10-31T06:58:56;100199.09;;;11.27;100.00
55664;BME280;41540;57.880;12.164;2022-10-31T07:08:56;100206.94;;;11.35;100.00
55664;BME280;41540;57.880;12.164;2022-10-31T07:18:56;100312.13;;;11.97;100.00
55664;BME280;41540;57.880;12.164;2022-10-31T07:28:57;100252.16;;;11.68;100.00
55664;BME280;41540;57.880;12.164;2022-10-31T07:39:00;100334.78;;;12.18;100.00
55664;BME280;41540;57.880;12.164;2022-10-31T07:49:02;100295.59;;;11.87;100.00
55664;BME280;41540;57.880;12.164;2022-10-31T07:59:02;100324.06;;;11.78;100.00
55664;BME280;41540;57.880;12.164;2022-10-31T08:09:03;100392.72;;;12.08;100.00
55664;BME280;41540;57.880;12.164;2022-10-31T08:19:03;100388.09;;;11.78;100.00
55664;BME280;41540;57.880;12.164;2022-10-31T08:29:03;100441.94;;;11.97;100.00
55664;BME280;41540;57.880;12.164;2022-10-31T08:39:04;100477.63;;;12.18;100.00
55664;BME280;41540;57.880;12.164;2022-10-31T08:49:05;100436.63;;;11.88;100.00
55664;BME280;41540;57.880;12.164;2022-10-31T08:59:06;100531.19;;;12.07;100.00
55664;BME280;41540;57.880;12.164;2022-10-31T09:09:06;100533.00;;;12.17;100.00
55664;BME280;41540;57.880;12.164;2022-10-31T09:19:06;100558.16;;;12.20;100.00
55664;BME280;41540;57.880;12.164;2022-10-31T09:29:07;100615.78;;;12.67;100.00
55664;BME280;41540;57.880;12.164;2022-10-31T09:39:09;100601.94;;;12.70;100.00
55664;BME280;41540;57.880;12.164;2022-10-31T09:59:34;100629.13;;;13.03;100.00
55664;BME280;41540;57.880;12.164;2022-10-31T10:09:35;100635.16;;;12.97;100.00
55664;BME280;41540;57.880;12.164;2022-10-31T10:30:13;100642.50;;;13.46;100.00
55664;BME280;41540;57.880;12.164;2022-10-31T10:40:24;100669.78;;;12.95;100.00
55664;BME280;41540;57.880;12.164;2022-10-31T10:50:32;100648.38;;;13.26;100.00
55664;BME280;41540;57.880;12.164;2022-10-31T11:00:45;100561.75;;;13.35;100.00
55664;BME280;41540;57.880;12.164;2022-10-31T11:10:58;100687.75;;;13.63;100.00
55664;BME280;41540;57.880;12.164;2022-10-31T11:21:01;100659.53;;;13.09;100.00
55664;BME280;41540;57.880;12.164;2022-10-31T11:31:08;100696.59;;;13.90;100.00
55664;BME280;41540;57.880;12.164;2022-10-31T11:41:12;100696.13;;;14.73;100.00
55664;BME280;41540;57.880;12.164;2022-10-31T11:51:37;100710.06;;;14.98;100.00
55664;BME280;41540;57.880;12.164;2022-10-31T12:01:40;100645.44;;;14.06;100.00
55664;BME280;41540;57.880;12.164;2022-10-31T12:12:13;100654.28;;;14.39;100.00
55664;BME280;41540;57.880;12.164;2022-10-31T12:32:56;100725.53;;;14.49;100.00
55664;BME280;41540;57.880;12.164;2022-10-31T12:43:32;100726.22;;;14.11;100.00
55664;BME280;41540;57.880;12.164;2022-10-31T13:03:51;100702.88;;;13.08;100.00
55664;BME280;41540;57.880;12.164;2022-10-31T13:14:09;100595.34;;;12.16;100.00
55664;BME280;41540;57.880;12.164;2022-10-31T13:24:22;100711.06;;;12.64;100.00
55664;BME280;41540;57.880;12.164;2022-10-31T13:34:31;100728.44;;;12.68;100.00
55664;BME280;41540;57.880;12.164;2022-10-31T13:44:35;100694.44;;;12.48;100.00
55664;BME280;41540;57.880;12.164;2022-10-31T13:54:38;100749.88;;;12.50;100.00
55664;BME280;41540;57.880;12.164;2022-10-31T14:04:47;100712.19;;;12.17;100.00
55664;BME280;41540;57.880;12.164;2022-10-31T14:14:51;100739.34;;;12.39;100.00
55664;BME280;41540;57.880;12.164;2022-10-31T14:24:52;100708.81;;;12.21;100.00
55664;BME280;41540;57.880;12.164;2022-10-31T14:34:55;100771.19;;;12.24;100.00
55664;BME280;41540;57.880;12.164;2022-10-31T14:45:13;100758.91;;;12.13;100.00
55664;BME280;41540;57.880;12.164;2022-10-31T14:55:17;100758.69;;;11.97;100.00
55664;BME280;41540;57.880;12.164;2022-10-31T15:05:18;100675.00;;;11.57;100.00
55664;BME280;41540;57.880;12.164;2022-10-31T15:15:22;100678.28;;;11.47;100.00
55664;BME280;41540;57.880;12.164;2022-10-31T15:25:26;100632.03;;;11.20;100.00
55664;BME280;41540;57.880;12.164;2022-10-31T15:35:29;100596.94;;;10.87;100.00
55664;BME280;41540;57.880;12.164;2022-10-31T15:45:30;100640.00;;;10.80;100.00
55664;BME280;41540;57.880;12.164;2022-10-31T15:55:37;100679.22;;;10.99;100.00
55664;BME280;41540;57.880;12.164;2022-10-31T16:05:46;100679.41;;;11.11;100.00
55664;BME280;41540;57.880;12.164;2022-10-31T16:15:55;100670.78;;;11.10;100.00
55664;BME280;41540;57.880;12.164;2022-10-31T16:25:56;100426.88;;;9.90;100.00
55664;BME280;41540;57.880;12.164;2022-10-31T16:35:57;100556.72;;;10.59;100.00
55664;BME280;41540;57.880;12.164;2022-10-31T16:45:58;100619.09;;;11.21;100.00
55664;BME280;41540;57.880;12.164;2022-10-31T16:55:59;100585.91;;;10.99;100.00
55664;BME280;41540;57.880;12.164;2022-10-31T17:06:01;100507.19;;;10.40;100.00
55664;BME280;41540;57.880;12.164;2022-10-31T17:16:02;100496.88;;;10.43;100.00
55664;BME280;41540;57.880;12.164;2022-10-31T17:26:03;100505.59;;;10.48;100.00
55664;BME280;41540;57.880;12.164;2022-10-31T17:36:04;100342.22;;;9.35;100.00
55664;BME280;41540;57.880;12.164;2022-10-31T17:46:05;100425.44;;;10.07;100.00
55664;BME280;41540;57.880;12.164;2022-10-31T17:56:08;100456.09;;;10.31;100.00
55664;BME280;41540;57.880;12.164;2022-10-31T18:06:09;100490.91;;;10.47;100.00
55664;BME280;41540;57.880;12.164;2022-10-31T18:16:14;100471.88;;;10.45;100.00
55664;BME280;41540;57.880;12.164;2022-10-31T18:26:15;100492.72;;;10.54;100.00
55664;BME280;41540;57.880;12.164;2022-10-31T18:36:18;100367.16;;;9.79;100.00
55664;BME280;41540;57.880;12.164;2022-10-31T18:46:18;100463.81;;;10.30;100.00
55664;BME280;41540;57.880;12.164;2022-10-31T18:56:19;100401.09;;;9.96;100.00
55664;BME280;41540;57.880;12.164;2022-10-31T19:06:20;100456.88;;;10.27;100.00
55664;BME280;41540;57.880;12.164;2022-10-31T19:16:20;100479.22;;;10.22;100.00
55664;BME280;41540;57.880;12.164;2022-10-31T19:26:20;100417.72;;;9.62;100.00
55664;BME280;41540;57.880;12.164;2022-10-31T19:36:21;100430.91;;;9.74;100.00
55664;BME280;41540;57.880;12.164;2022-10-31T19:46:22;100441.31;;;9.79;100.00
55664;BME280;41540;57.880;12.164;2022-10-31T19:56:23;100475.28;;;9.95;100.00
55664;BME280;41540;57.880;12.164;2022-10-31T20:06:26;100526.66;;;10.21;100.00
55664;BME280;41540;57.880;12.164;2022-10-31T20:16:27;100427.44;;;9.73;100.00
55664;BME280;41540;57.880;12.164;2022-10-31T20:26:29;100532.72;;;10.22;100.00
55664;BME280;41540;57.880;12.164;2022-10-31T20:36:30;100464.88;;;9.92;100.00
55664;BME280;41540;57.880;12.164;2022-10-31T20:46:30;100452.63;;;9.84;100.00
55664;BME280;41540;57.880;12.164;2022-10-31T20:56:31;100349.47;;;9.08;100.00
55664;BME280;41540;57.880;12.164;2022-10-31T21:06:31;100360.81;;;9.16;100.00
55664;BME280;41540;57.880;12.164;2022-10-31T21:16:34;100238.56;;;8.35;100.00
55664;BME280;41540;57.880;12.164;2022-10-31T21:26:40;100561.13;;;10.19;100.00
55664;BME280;41540;57.880;12.164;2022-10-31T21:36:41;100520.00;;;9.88;100.00
55664;BME280;41540;57.880;12.164;2022-10-31T21:46:44;100520.69;;;9.80;100.00
55664;BME280;41540;57.880;12.164;2022-10-31T21:56:47;100501.53;;;9.71;100.00
55664;BME280;41540;57.880;12.164;2022-10-31T22:06:47;100517.44;;;9.90;100.00
55664;BME280;41540;57.880;12.164;2022-10-31T22:16:47;100505.88;;;9.72;100.00
55664;BME280;41540;57.880;12.164;2022-10-31T22:26:48;100541.44;;;9.83;100.00
55664;BME280;41540;57.880;12.164;2022-10-31T22:36:48;100544.69;;;9.72;100.00
55664;BME280;41540;57.880;12.164;2022-10-31T22:46:49;100548.03;;;9.67;100.00
55664;BME280;41540;57.880;12.164;2022-10-31T22:56:49;100506.03;;;9.39;100.00
55664;BME280;41540;57.880;12.164;2022-10-31T23:06:49;100533.91;;;9.51;100.00
55664;BME280;41540;57.880;12.164;2022-10-31T23:16:55;100509.53;;;9.40;100.00
55664;BME280;41540;57.880;12.164;2022-10-31T23:26:56;100471.38;;;8.90;100.00
55664;BME280;41540;57.880;12.164;2022-10-31T23:37:07;100504.59;;;9.12;100.00
55664;BME280;41540;57.880;12.164;2022-10-31T23:47:07;100452.97;;;8.76;100.00
55664;BME280;41540;57.880;12.164;2022-10-31T23:57:09;100473.34;;;9.00;100.00
